Time;durP1;ratioP1;P1;durP2;ratioP2;P2;SDS_P1;SDS_P2;PMS_P1;PMS_P2;Temp;Humidity;BMP_temperature;BMP_pressure;BME280_temperature;BME280_humidity;BME280_pressure;Samples;Min_cycle;Max_cycle;Signal;HPM_P1;HPM_P2
2021/03/11 00:01:41;;;;;;;49.20;22.80;;;;;;;-6.45;66.60;101562.25;1749760;81;21196;-68
2021/03/11 00:04:09;;;;;;;56.00;24.70;;;;;;;-6.48;66.61;101558.59;1762475;81;21454;-68
2021/03/11 00:06:38;;;;;;;50.85;22.70;;;;;;;-6.50;66.62;101560.48;1755095;79;21222;-69
2021/03/11 00:09:06;;;;;;;57.90;26.77;;;;;;;-6.53;66.70;101559.42;1760845;81;21700;-68
2021/03/11 00:11:35;;;;;;;67.92;31.23;;;;;;;-6.54;66.76;101562.97;1764999;79;21659;-67
2021/03/11 00:14:03;;;;;;;85.07;33.40;;;;;;;-6.56;66.90;101564.86;1758378;81;21117;-68
2021/03/11 00:16:31;;;;;;;80.45;33.63;;;;;;;-6.58;66.99;101564.61;1764731;81;21374;-69
2021/03/11 00:18:59;;;;;;;99.65;40.08;;;;;;;-6.61;67.10;101563.11;1753112;81;21192;-68
2021/03/11 00:21:27;;;;;;;83.03;35.10;;;;;;;-6.65;67.20;101563.80;1758032;81;21581;-68
2021/03/11 00:23:55;;;;;;;83.45;35.58;;;;;;;-6.70;67.38;101567.23;1755989;81;21405;-69
2021/03/11 00:26:24;;;;;;;69.03;29.65;;;;;;;-6.73;67.58;101569.25;1762797;81;21201;-69
2021/03/11 00:28:52;;;;;;;64.20;28.90;;;;;;;-6.74;67.78;101565.02;1765298;81;22229;-68
2021/03/11 00:31:20;;;;;;;59.60;27.13;;;;;;;-6.73;67.96;101566.66;1762419;81;21252;-69
2021/03/11 00:33:48;;;;;;;58.42;26.97;;;;;;;-6.71;68.06;101558.25;1765596;81;21208;-69
2021/03/11 00:36:16;;;;;;;62.98;27.82;;;;;;;-6.70;68.14;101554.73;1762798;81;21519;-67
2021/03/11 00:38:48;;;;;;;66.05;28.50;;;;;;;-6.71;68.19;101556.50;1753973;81;21275;-72
2021/03/11 00:41:15;;;;;;;47.83;22.32;;;;;;;-6.68;68.24;101556.72;1765540;81;21198;-69
2021/03/11 00:43:43;;;;;;;65.70;29.32;;;;;;;-6.68;68.27;101554.12;1764463;79;21244;-67
2021/03/11 00:46:10;;;;;;;64.12;29.92;;;;;;;-6.67;68.30;101557.09;1765521;81;21212;-68
2021/03/11 00:48:39;;;;;;;64.67;27.05;;;;;;;-6.67;68.30;101551.89;1754723;80;21203;-68
2021/03/11 00:51:07;;;;;;;61.73;27.62;;;;;;;-6.68;68.32;101545.02;1749222;81;21216;-68
2021/03/11 00:53:36;;;;;;;58.33;25.80;;;;;;;-6.67;68.29;101550.59;1754081;81;21482;-69
2021/03/11 00:56:06;;;;;;;59.40;26.52;;;;;;;-6.69;68.29;101545.50;1765352;80;21221;-68
2021/03/11 00:58:34;;;;;;;60.12;26.23;;;;;;;-6.69;68.26;101541.60;1758934;81;21154;-68
2021/03/11 01:01:02;;;;;;;60.65;26.55;;;;;;;-6.70;68.19;101533.47;1760789;81;21466;-69
2021/03/11 01:03:36;;;;;;;54.20;26.60;;;;;;;-6.72;68.15;101535.34;1760730;81;21181;-67
2021/03/11 01:06:04;;;;;;;66.30;28.65;;;;;;;-6.72;68.15;101532.75;1757554;81;21835;-69
2021/03/11 01:08:44;;;;;;;65.07;31.73;;;;;;;-6.71;68.17;101530.97;1827562;77;23213;-69
2021/03/11 01:11:12;;;;;;;79.75;33.67;;;;;;;-6.83;68.21;101527.58;1815352;78;21624;-69
2021/03/11 01:13:40;;;;;;;71.07;30.85;;;;;;;-6.87;68.38;101533.48;1839014;77;21660;-69
2021/03/11 01:16:08;;;;;;;72.47;31.75;;;;;;;-6.88;68.48;101531.84;1805269;77;21257;-68
2021/03/11 01:18:36;;;;;;;77.97;33.53;;;;;;;-6.89;68.51;101518.96;1812480;78;21217;-68
2021/03/11 01:21:05;;;;;;;71.77;32.50;;;;;;;-6.90;68.54;101519.92;1808872;78;21219;-69
2021/03/11 01:23:33;;;;;;;73.67;33.28;;;;;;;-6.90;68.60;101514.25;1810370;78;21538;-68
2021/03/11 01:26:01;;;;;;;71.82;31.35;;;;;;;-6.91;68.57;101519.09;1791481;78;21805;-71
2021/03/11 01:28:29;;;;;;;69.90;31.40;;;;;;;-6.96;68.64;101517.31;1809690;78;21203;-69
2021/03/11 01:30:56;;;;;;;63.73;29.90;;;;;;;-6.94;68.73;101513.28;1834686;77;22288;-70
2021/03/11 01:33:24;;;;;;;65.55;29.77;;;;;;;-6.93;68.75;101522.75;1787069;79;21199;-70
2021/03/11 01:35:53;;;;;;;64.60;29.52;;;;;;;-6.93;68.83;101518.37;1799888;78;21711;-70
2021/03/11 01:38:26;;;;;;;59.30;28.07;;;;;;;-6.90;68.85;101522.04;1811585;78;21211;-70
2021/03/11 01:40:56;;;;;;;57.53;26.75;;;;;;;-6.88;68.86;101524.50;1817080;77;21138;-68
2021/03/11 01:43:24;;;;;;;61.15;27.80;;;;;;;-6.86;68.85;101526.52;1823335;77;21143;-68
2021/03/11 01:45:53;;;;;;;59.00;27.37;;;;;;;-6.88;68.84;101524.05;1803911;78;21175;-69
2021/03/11 01:48:22;;;;;;;63.35;28.25;;;;;;;-6.89;68.82;101521.08;1842637;76;21127;-72
2021/03/11 01:50:50;;;;;;;61.53;28.98;;;;;;;-6.88;68.78;101518.86;1812155;77;21202;-69
2021/03/11 01:53:19;;;;;;;61.85;28.60;;;;;;;-6.88;68.77;101523.20;1808228;78;21202;-68
2021/03/11 01:55:46;;;;;;;59.80;28.12;;;;;;;-6.91;68.77;101534.68;1830007;77;21230;-68
2021/03/11 01:58:14;;;;;;;61.60;27.93;;;;;;;-6.99;68.79;101535.73;1835755;77;21190;-67
2021/03/11 02:00:42;;;;;;;57.78;27.67;;;;;;;-7.02;68.87;101539.86;1849138;77;21159;-69
2021/03/11 02:03:10;;;;;;;60.50;29.02;;;;;;;-7.02;68.91;101536.44;1843387;77;21807;-68
2021/03/11 02:05:38;;;;;;;58.83;26.93;;;;;;;-7.03;68.94;101535.63;1800097;78;21211;-68
2021/03/11 02:08:06;;;;;;;57.98;27.93;;;;;;;-7.02;68.98;101539.86;1816602;77;22022;-69
2021/03/11 02:10:34;;;;;;;59.13;27.40;;;;;;;-7.00;69.04;101541.87;1805514;78;21195;-68
2021/03/11 02:13:42;;;;;;;53.87;24.98;;;;;;;-6.97;69.10;101544.72;1803929;78;21163;-68
2021/03/11 02:16:28;;;;;;;52.08;24.27;;;;;;;-6.95;69.08;101544.93;1820541;78;21339;-68
2021/03/11 02:19:17;;;;;;;50.50;24.43;;;;;;;-6.91;69.08;101549.41;1842348;77;21664;-67
2021/03/11 02:21:54;;;;;;;39.25;20.43;;;;;;;-6.92;69.07;101545.99;1813699;78;21105;-68
2021/03/11 02:25:01;;;;;;;39.00;19.98;;;;;;;-6.91;69.07;101550.27;1819285;78;21123;-70
2021/03/11 02:28:14;;;;;;;42.55;20.17;;;;;;;-6.91;69.05;101551.56;1825823;78;21466;-69
2021/03/11 02:30:41;;;;;;;37.30;20.02;;;;;;;-6.92;69.04;101549.89;1809282;78;22311;-68
2021/03/11 02:33:11;;;;;;;41.68;20.60;;;;;;;-6.97;69.05;101553.33;1814983;78;21191;-72
2021/03/11 02:35:40;;;;;;;41.02;20.70;;;;;;;-7.00;69.10;101549.67;1829921;77;21362;-69
2021/03/11 02:38:08;;;;;;;40.30;20.88;;;;;;;-7.06;69.19;101553.21;1793738;78;21231;-69
2021/03/11 02:40:37;;;;;;;40.03;19.70;;;;;;;-7.12;69.27;101550.60;1821092;78;21189;-67
2021/03/11 02:43:10;;;;;;;34.75;18.77;;;;;;;-7.15;69.40;101546.94;1810769;78;21211;-69
2021/03/11 02:45:38;;;;;;;32.65;17.77;;;;;;;-7.14;69.49;101550.73;1820980;78;21268;-68
2021/03/11 02:48:07;;;;;;;34.73;19.02;;;;;;;-7.10;69.53;101551.33;1822341;78;21156;-69
2021/03/11 02:50:37;;;;;;;31.97;16.70;;;;;;;-7.07;69.54;101548.49;1804320;77;21117;-68
2021/03/11 02:53:09;;;;;;;35.68;18.57;;;;;;;-7.05;69.55;101547.06;1803260;77;21155;-67
2021/03/11 02:55:41;;;;;;;27.35;15.45;;;;;;;-7.03;69.58;101551.20;1826342;77;21189;-68
2021/03/11 02:58:12;;;;;;;29.77;16.62;;;;;;;-7.00;69.62;101550.97;1824374;77;21184;-67
2021/03/11 03:00:41;;;;;;;42.20;22.13;;;;;;;-6.96;69.66;101551.08;1811416;78;21148;-67
2021/03/11 03:03:11;;;;;;;38.78;20.12;;;;;;;-6.91;69.71;101555.46;1808593;79;21172;-68
2021/03/11 03:05:38;;;;;;;44.53;22.85;;;;;;;-6.90;69.76;101561.00;1806698;79;21729;-67
2021/03/11 03:08:07;;;;;;;46.02;23.07;;;;;;;-6.87;69.77;101563.84;1823330;77;21197;-69
2021/03/11 03:10:37;;;;;;;50.92;25.37;;;;;;;-6.87;69.87;101558.64;1800351;79;21195;-67
2021/03/11 03:13:14;;;;;;;54.15;26.95;;;;;;;-6.87;69.94;101555.56;1827620;78;21164;-68
2021/03/11 03:15:43;;;;;;;53.28;26.25;;;;;;;-6.88;69.98;101552.63;1828568;77;21156;-67
2021/03/11 03:18:12;;;;;;;50.92;26.12;;;;;;;-6.88;70.07;101551.33;1829342;77;21199;-67
2021/03/11 03:20:41;;;;;;;52.53;26.37;;;;;;;-6.88;70.16;101551.33;1821369;78;21374;-68
2021/03/11 03:23:10;;;;;;;52.60;25.10;;;;;;;-6.86;70.21;101546.82;1830506;77;21189;-68
2021/03/11 03:25:39;;;;;;;51.05;25.48;;;;;;;-6.87;70.23;101543.06;1814269;77;21173;-68
2021/03/11 03:28:27;;;;;;;57.35;27.27;;;;;;;-6.87;70.21;101546.95;1789034;78;21259;-68
2021/03/11 03:30:55;;;;;;;51.60;26.60;;;;;;;-6.88;70.21;101553.92;1648397;85;21150;-68
2021/03/11 03:33:24;;;;;;;58.52;28.20;;;;;;;-6.93;70.16;101553.44;1657356;85;21435;-68
2021/03/11 03:35:52;;;;;;;62.15;29.35;;;;;;;-6.93;70.13;101555.22;1636867;86;21251;-67
2021/03/11 03:38:20;;;;;;;68.55;31.23;;;;;;;-6.97;70.17;101550.73;1682405;83;21203;-67
2021/03/11 03:40:48;;;;;;;66.47;31.68;;;;;;;-6.98;70.18;101551.66;1653373;85;21196;-67
2021/03/11 03:43:22;;;;;;;65.10;31.77;;;;;;;-7.03;70.19;101548.61;1655884;85;21159;-66
2021/03/11 03:46:11;;;;;;;68.95;34.50;;;;;;;-7.06;70.22;101550.14;1654072;85;21356;-68
2021/03/11 03:49:00;;;;;;;68.65;32.80;;;;;;;-7.11;70.27;101554.84;1652860;85;21221;-69
2021/03/11 03:51:31;;;;;;;73.85;34.13;;;;;;;-7.13;70.33;101555.45;1650101;85;21224;-68
2021/03/11 03:54:07;;;;;;;68.42;33.85;;;;;;;-7.19;70.41;101554.14;1666657;84;21241;-66
2021/03/11 03:56:42;;;;;;;69.95;34.03;;;;;;;-7.21;70.50;101556.02;1619328;86;21180;-69
2021/03/11 03:59:14;;;;;;;72.47;33.48;;;;;;;-7.28;70.48;101557.91;1683320;85;21371;-69
2021/03/11 04:01:43;;;;;;;67.10;32.60;;;;;;;-7.36;70.53;101557.20;1634385;86;21181;-69
2021/03/11 04:04:13;;;;;;;63.00;32.50;;;;;;;-7.59;70.68;101557.15;1635264;86;21701;-67
2021/03/11 04:06:42;;;;;;;65.50;31.23;;;;;;;-7.67;70.92;101563.83;1676962;83;21241;-67
2021/03/11 04:09:12;;;;;;;61.37;29.75;;;;;;;-7.71;71.13;101561.12;1685922;83;21247;-68
2021/03/11 04:11:44;;;;;;;71.15;30.08;;;;;;;-7.71;71.25;101566.30;1653623;85;21434;-67
2021/03/11 04:14:12;;;;;;;64.10;30.75;;;;;;;-7.70;71.34;101565.36;1656292;85;21221;-67
2021/03/11 04:16:41;;;;;;;59.23;29.48;;;;;;;-7.67;71.47;101568.55;1649188;85;21204;-68
2021/03/11 04:19:10;;;;;;;63.23;30.10;;;;;;;-7.65;71.54;101570.57;1651432;85;21663;-67
2021/03/11 04:21:40;;;;;;;61.13;29.87;;;;;;;-7.61;71.62;101565.98;1682348;83;21210;-68
2021/03/11 04:24:10;;;;;;;63.15;30.15;;;;;;;-7.58;71.61;101577.42;1654336;84;21399;-67
2021/03/11 04:26:37;;;;;;;61.37;30.12;;;;;;;-7.58;71.59;101577.42;1678460;83;21229;-68
2021/03/11 04:29:06;;;;;;;57.33;29.85;;;;;;;-7.59;71.55;101575.30;1655033;84;21252;-68
2021/03/11 04:31:34;;;;;;;65.80;30.57;;;;;;;-7.56;71.56;101580.75;1654820;85;21192;-68
2021/03/11 04:34:03;;;;;;;61.70;30.00;;;;;;;-7.59;71.49;101585.69;1649901;84;21271;-67
2021/03/11 04:48:00;;;;;;;66.67;35.07;;;;;;;-6.91;71.03;101576.68;1815925;77;22055;-67
2021/03/11 04:50:39;;;;;;;64.45;38.78;;;;;;;-6.89;70.85;101576.11;1840391;75;28960;-69
2021/03/11 04:53:08;;;;;;;62.00;33.53;;;;;;;-6.87;70.70;101577.64;1811609;77;21176;-67
2021/03/11 04:55:36;;;;;;;60.90;31.52;;;;;;;-6.87;70.54;101572.45;1845200;77;22284;-68
2021/03/11 04:58:04;;;;;;;59.45;31.55;;;;;;;-6.88;70.44;101576.00;1812260;77;21256;-68
2021/03/11 05:00:32;;;;;;;62.10;30.00;;;;;;;-6.92;70.36;101571.97;1805556;77;21642;-68
2021/03/11 05:03:00;;;;;;;58.83;30.70;;;;;;;-6.94;70.26;101569.98;1812868;77;21116;-67
2021/03/11 05:05:35;;;;;;;56.70;29.40;;;;;;;-6.95;70.19;101581.77;1842215;77;21122;-68
2021/03/11 05:08:05;;;;;;;57.43;29.07;;;;;;;-6.96;70.14;101582.24;1839269;75;21388;-68
2021/03/11 05:10:33;;;;;;;57.73;29.52;;;;;;;-7.04;70.13;101580.72;1855444;76;22827;-68
2021/03/11 05:13:01;;;;;;;58.50;30.52;;;;;;;-7.14;70.19;101584.93;1817224;77;21184;-68
2021/03/11 05:15:29;;;;;;;64.97;31.77;;;;;;;-7.24;70.32;101589.17;1827040;77;21126;-68
2021/03/11 05:17:57;;;;;;;63.33;33.60;;;;;;;-7.33;70.44;101592.83;1803106;77;21652;-68
2021/03/11 05:20:25;;;;;;;67.25;33.90;;;;;;;-7.30;70.60;101595.67;1805343;77;22346;-68
2021/03/11 05:22:54;;;;;;;96.90;44.10;;;;;;;-7.29;70.71;101595.20;1812872;77;21672;-68
2021/03/11 05:25:22;;;;;;;98.97;43.92;;;;;;;-7.34;70.87;101592.48;1808512;77;21087;-68
2021/03/11 05:27:49;;;;;;;109.57;46.40;;;;;;;-7.40;71.05;101599.42;1774005;78;21840;-68
2021/03/11 05:30:18;;;;;;;107.12;47.05;;;;;;;-7.44;71.29;101594.08;1804671;77;21182;-67
2021/03/11 05:32:45;;;;;;;119.82;49.70;;;;;;;-7.44;71.48;101599.27;1799622;78;21332;-69
2021/03/11 05:35:13;;;;;;;129.00;55.20;;;;;;;-7.40;71.70;101597.30;1820842;77;22325;-67
2021/03/11 05:37:41;;;;;;;129.97;52.85;;;;;;;-7.30;71.85;101599.56;1819605;77;21133;-68
2021/03/11 05:40:12;;;;;;;106.25;46.63;;;;;;;-7.19;71.98;101604.77;1842297;75;21186;-69
2021/03/11 05:42:44;;;;;;;83.17;37.13;;;;;;;-7.06;72.11;101607.27;1847898;76;21129;-68
2021/03/11 05:45:12;;;;;;;;;;;;;;;-6.91;72.22;101607.84;1843686;76;22162;-69
2021/03/11 05:47:43;;;;;;;70.22;34.50;;;;;;;-6.75;72.36;101611.41;1834131;77;21100;-69
2021/03/11 05:50:12;;;;;;;66.25;32.75;;;;;;;-6.61;72.49;101612.48;1809404;78;21540;-68
2021/03/11 05:52:40;;;;;;;62.93;31.75;;;;;;;-6.44;72.65;101608.56;1843840;77;21156;-68
2021/03/11 05:55:09;;;;;;;51.63;27.15;;;;;;;-6.25;72.73;101603.56;1847860;77;21207;-69
2021/03/11 05:57:42;;;;;;;40.73;21.80;;;;;;;-6.07;72.79;101604.34;1826290;76;21279;-69
2021/03/11 06:00:16;;;;;;;39.30;20.60;;;;;;;-5.96;72.73;101609.02;1819341;77;21302;-68
2021/03/11 06:02:45;;;;;;;37.05;19.95;;;;;;;-5.86;72.80;101608.25;1840942;75;21144;-68
2021/03/11 06:05:15;;;;;;;35.92;19.25;;;;;;;-5.74;72.83;101613.30;1803261;77;21574;-69
2021/03/11 06:07:46;;;;;;;34.20;18.75;;;;;;;-5.63;72.82;101616.31;1823380;77;21217;-69
2021/03/11 06:10:21;;;;;;;31.97;19.27;;;;;;;-5.50;72.81;101617.44;1817640;76;21367;-69
2021/03/11 06:12:50;;;;;;;31.80;18.23;;;;;;;-5.42;72.74;101613.27;1826672;77;21124;-69
2021/03/11 06:15:34;;;;;;;26.68;15.43;;;;;;;-5.28;72.75;101618.62;1832452;77;21166;-67
2021/03/11 06:18:07;;;;;;;23.95;14.25;;;;;;;-5.13;72.65;101619.14;1822043;78;21156;-69
2021/03/11 06:20:36;;;;;;;20.90;13.35;;;;;;;-4.96;72.50;101624.23;1814768;76;21195;-68
2021/03/11 06:23:05;;;;;;;19.73;11.48;;;;;;;-4.76;72.42;101616.84;1805979;77;22375;-68
2021/03/11 06:25:33;;;;;;;20.32;11.00;;;;;;;-4.55;72.04;101616.78;1810805;76;21245;-70
2021/03/11 06:28:02;;;;;;;17.92;10.75;;;;;;;-4.38;71.64;101621.02;1819344;77;21108;-68
2021/03/11 06:30:40;;;;;;;19.25;9.43;;;;;;;-4.21;71.28;101614.33;1812035;77;21170;-67
2021/03/11 06:33:08;;;;;;;15.90;9.10;;;;;;;-4.05;70.82;101622.01;1808428;76;21147;-67
2021/03/11 06:35:40;;;;;;;17.77;9.68;;;;;;;-3.84;70.36;101617.14;1819301;76;22063;-69
2021/03/11 06:38:13;;;;;;;16.67;8.83;;;;;;;-3.65;69.80;101618.45;1816794;78;21160;-68
2021/03/11 06:40:41;;;;;;;17.32;8.78;;;;;;;-3.48;69.00;101616.11;1798287;77;21166;-68
2021/03/11 06:43:12;;;;;;;16.27;8.30;;;;;;;-3.36;68.15;101613.19;1800808;78;21151;-68
2021/03/11 06:45:40;;;;;;;16.40;8.80;;;;;;;-3.19;67.46;101613.43;1804760;78;21008;-69
2021/03/11 06:48:29;;;;;;;16.80;9.48;;;;;;;-3.01;66.78;101618.28;1811768;77;21815;-68
2021/03/11 06:50:59;;;;;;;20.17;10.95;;;;;;;-2.84;65.81;101619.33;1832610;75;21206;-67
2021/03/11 06:53:27;;;;;;;18.62;10.95;;;;;;;-2.75;65.00;101621.09;1791703;79;21167;-68
2021/03/11 06:56:19;;;;;;;16.35;10.15;;;;;;;-2.61;64.55;101618.48;1829676;75;21241;-68
2021/03/11 06:59:05;;;;;;;18.85;10.50;;;;;;;-2.47;63.77;101618.48;1824321;78;21183;-69
2021/03/11 07:01:35;;;;;;;15.05;8.78;;;;;;;-2.31;63.06;101621.78;1832200;77;22267;-69
2021/03/11 07:04:04;;;;;;;15.55;8.98;;;;;;;-2.19;62.72;101616.20;1824563;78;21230;-69
2021/03/11 07:06:35;;;;;;;16.10;9.78;;;;;;;-2.04;62.01;101619.61;1831347;75;21119;-69
2021/03/11 07:09:05;;;;;;;11.48;6.58;;;;;;;-1.90;61.54;101623.05;1825591;77;21648;-68
2021/03/11 07:11:33;;;;;;;11.93;7.30;;;;;;;-1.79;60.95;101628.05;1835771;75;21181;-68
2021/03/11 07:14:03;;;;;;;11.63;6.50;;;;;;;-1.67;60.63;101626.86;1829885;77;21386;-70
2021/03/11 07:16:34;;;;;;;12.37;7.00;;;;;;;-1.51;60.14;101619.63;1835037;76;21632;-69
2021/03/11 07:19:17;;;;;;;11.00;6.10;;;;;;;-1.37;59.75;101618.25;1804781;78;21196;-68
2021/03/11 07:21:53;;;;;;;10.32;6.33;;;;;;;-1.22;59.21;101619.83;1813604;77;21126;-68
2021/03/11 07:24:35;;;;;;;10.38;5.90;;;;;;;-1.09;58.63;101624.66;1823991;78;21138;-68
2021/03/11 07:27:05;;;;;;;6.75;4.12;;;;;;;-0.97;57.91;101619.01;1812676;76;22115;-68
2021/03/11 07:29:33;;;;;;;9.83;5.95;;;;;;;-0.85;56.99;101620.08;1825473;78;21226;-69
2021/03/11 07:32:07;;;;;;;10.78;6.00;;;;;;;-0.82;56.47;101615.83;1815824;76;21116;-69
2021/03/11 07:34:37;;;;;;;9.73;5.50;;;;;;;-0.78;56.15;101620.59;1822539;76;21139;-69
2021/03/11 07:37:05;;;;;;;8.18;5.08;;;;;;;-0.67;55.59;101622.61;1812364;78;21263;-69
2021/03/11 07:39:43;;;;;;;9.25;5.72;;;;;;;-0.55;55.08;101626.12;1807481;77;21366;-70
2021/03/11 07:42:11;;;;;;;10.43;5.65;;;;;;;-0.46;54.76;101626.98;1806163;77;21127;-70
2021/03/11 07:44:39;;;;;;;9.23;5.10;;;;;;;-0.34;54.41;101623.06;1835447;77;21717;-70
2021/03/11 07:47:09;;;;;;;9.83;5.95;;;;;;;-0.26;53.75;101624.42;1805486;77;21186;-69
2021/03/11 07:49:38;;;;;;;9.58;5.72;;;;;;;-0.16;53.36;101624.78;1834076;77;21147;-71
2021/03/11 07:52:07;;;;;;;8.58;5.40;;;;;;;-0.04;53.07;101625.61;1843177;75;21603;-70
2021/03/11 07:54:35;;;;;;;9.50;5.03;;;;;;;0.07;52.54;101623.19;1837891;77;21190;-70
2021/03/11 07:57:04;;;;;;;10.70;5.62;;;;;;;0.18;51.77;101621.55;1839881;77;21188;-70
2021/03/11 07:59:32;;;;;;;9.90;5.75;;;;;;;0.28;50.92;101621.90;1829003;77;21159;-69
2021/03/11 08:02:16;;;;;;;8.08;5.65;;;;;;;0.31;50.70;101617.63;1805233;77;21210;-70
2021/03/11 08:04:44;;;;;;;9.58;5.80;;;;;;;0.40;50.53;101623.23;1839918;77;21255;-70
2021/03/11 08:07:24;;;;;;;7.97;4.85;;;;;;;0.54;50.05;101615.99;1839749;77;21141;-71
2021/03/11 08:09:55;;;;;;;9.25;5.47;;;;;;;0.67;49.65;101618.12;1804804;78;21673;-70
2021/03/11 08:12:37;;;;;;;11.40;5.12;;;;;;;0.76;48.43;101602.67;1799815;77;21202;-70
2021/03/11 08:15:18;;;;;;;13.48;6.72;;;;;;;0.79;47.48;101602.34;1836521;77;21603;-73
2021/03/11 08:17:48;;;;;;;9.40;5.90;;;;;;;0.80;47.40;101605.79;1792824;78;21386;-70
2021/03/11 08:20:24;;;;;;;10.95;5.67;;;;;;;0.88;47.24;101608.39;1826159;78;21592;-70
2021/03/11 08:23:00;;;;;;;10.50;5.90;;;;;;;0.93;45.47;101606.09;1819230;76;21142;-70
2021/03/11 08:25:36;;;;;;;10.15;5.62;;;;;;;0.86;45.54;101600.69;1807869;78;21170;-72
2021/03/11 08:28:14;;;;;;;9.28;5.20;;;;;;;0.89;45.31;101592.46;1816230;77;21254;-70
2021/03/11 08:30:51;;;;;;;8.15;5.08;;;;;;;0.96;45.15;101603.13;1807952;78;21183;-72
2021/03/11 08:33:27;;;;;;;8.83;4.87;;;;;;;1.04;44.98;101596.52;1813559;76;21174;-70
2021/03/11 08:35:57;;;;;;;7.45;4.30;;;;;;;1.11;44.54;101585.64;1850216;77;22228;-72
2021/03/11 08:38:32;;;;;;;7.80;4.70;;;;;;;1.19;44.16;101587.95;1797851;77;21186;-72
2021/03/11 08:41:07;;;;;;;7.35;3.83;;;;;;;1.25;43.68;101585.92;1806941;78;21201;-70
2021/03/11 08:43:42;;;;;;;6.95;4.10;;;;;;;1.25;43.34;101586.77;1808840;77;21093;-74
2021/03/11 08:46:17;;;;;;;6.92;4.53;;;;;;;1.29;43.31;101578.86;1805441;77;21609;-75
2021/03/11 08:48:57;;;;;;;6.95;4.62;;;;;;;1.34;43.38;101587.55;1794448;78;21198;-70
2021/03/11 08:51:32;;;;;;;8.90;4.47;;;;;;;1.38;43.32;101576.98;1798178;78;21194;-70
2021/03/11 08:54:08;;;;;;;6.53;3.95;;;;;;;1.47;43.04;101572.52;1808715;77;21116;-71
2021/03/11 08:56:39;;;;;;;6.90;4.00;;;;;;;1.51;42.42;101571.98;1800445;77;21438;-70
2021/03/11 08:59:13;;;;;;;5.87;3.80;;;;;;;1.52;42.47;101573.66;1809546;78;21234;-71
2021/03/11 09:01:52;;;;;;;6.62;3.90;;;;;;;1.60;42.71;101574.91;1822416;77;21157;-71
2021/03/11 09:04:30;;;;;;;5.97;4.17;;;;;;;1.68;41.97;101573.22;1807300;77;21567;-70
2021/03/11 09:07:08;;;;;;;6.33;3.72;;;;;;;1.68;41.83;101562.69;1814150;77;21159;-72
2021/03/11 09:09:51;;;;;;;6.42;3.72;;;;;;;1.69;41.62;101565.16;1800292;77;21363;-71
2021/03/11 09:12:38;;;;;;;8.45;4.50;;;;;;;1.74;41.96;101563.31;1809316;78;21079;-71
2021/03/11 09:15:08;;;;;;;8.90;4.55;;;;;;;1.66;41.33;101572.09;1803435;77;21155;-73
2021/03/11 09:17:37;;;;;;;7.72;4.53;;;;;;;1.63;41.75;101571.12;1816714;77;21716;-73
2021/03/11 09:20:16;;;;;;;6.75;4.55;;;;;;;1.70;41.69;101569.93;1809948;77;22367;-71
2021/03/11 09:22:51;;;;;;;7.85;4.62;;;;;;;1.77;41.55;101573.50;1814446;77;21230;-72
2021/03/11 09:25:25;;;;;;;7.12;4.87;;;;;;;1.86;41.32;101565.88;1817980;77;21704;-73
2021/03/11 09:28:02;;;;;;;7.87;4.80;;;;;;;1.94;41.26;101572.44;1807418;78;21206;-74
2021/03/11 09:30:32;;;;;;;9.40;4.58;;;;;;;2.00;41.06;101570.38;1815161;78;21167;-74
2021/03/11 09:33:17;;;;;;;6.17;4.35;;;;;;;1.99;40.55;101559.53;1822689;77;27247;-73
2021/03/11 09:35:50;;;;;;;7.30;4.47;;;;;;;1.97;40.83;101558.87;1813498;77;21247;-73
2021/03/11 09:38:25;;;;;;;8.65;4.83;;;;;;;2.01;40.89;101568.09;1836866;75;21187;-73
2021/03/11 09:41:02;;;;;;;6.85;4.50;;;;;;;2.02;40.35;101560.50;1830818;76;21748;-74
2021/03/11 09:43:33;;;;;;;7.65;4.58;;;;;;;2.00;40.50;101562.98;1836887;75;21177;-73
2021/03/11 09:46:17;;;;;;;7.45;5.17;;;;;;;2.09;40.53;101563.25;1839702;75;21109;-75
2021/03/11 09:48:51;;;;;;;8.00;5.33;;;;;;;2.19;40.56;101561.20;1843706;75;22378;-74
2021/03/11 09:51:23;;;;;;;8.03;4.22;;;;;;;2.32;40.29;101561.41;1834929;75;21141;-76
2021/03/11 09:53:56;;;;;;;7.92;5.00;;;;;;;2.38;39.66;101558.58;1814151;77;21187;-74
2021/03/11 09:56:40;;;;;;;8.55;5.03;;;;;;;2.37;39.67;101562.22;1798844;78;21207;-76
2021/03/11 09:59:14;;;;;;;7.25;4.70;;;;;;;2.38;39.64;101567.80;1815851;76;21648;-75
2021/03/11 10:01:43;;;;;;;8.23;4.72;;;;;;;2.43;39.38;101563.30;1810467;77;21440;-74
2021/03/11 10:04:17;;;;;;;;;;;;;;;2.48;38.79;101559.64;1804704;77;21163;-73
2021/03/11 10:06:52;;;;;;;7.67;5.00;;;;;;;2.48;39.11;101550.42;1803014;78;20269;-74
2021/03/11 10:09:21;;;;;;;8.05;4.42;;;;;;;2.53;39.11;101548.89;1834442;77;21231;-74
2021/03/11 10:11:53;;;;;;;7.17;4.37;;;;;;;2.58;39.07;101554.93;1792382;78;21966;-74
2021/03/11 10:14:26;;;;;;;7.87;4.22;;;;;;;2.66;38.79;101554.02;1816842;77;21872;-73
2021/03/11 10:16:56;;;;;;;8.05;4.87;;;;;;;2.72;38.97;101551.98;1839985;76;21516;-73
2021/03/11 10:19:33;;;;;;;6.62;3.75;;;;;;;2.78;39.01;101549.95;1836563;76;21251;-73
2021/03/11 10:22:07;;;;;;;7.45;4.87;;;;;;;2.87;38.74;101550.19;1799743;77;21244;-73
2021/03/11 10:24:50;;;;;;;7.97;4.80;;;;;;;2.94;38.67;101537.91;1800644;77;21104;-75
2021/03/11 10:27:23;;;;;;;8.38;4.83;;;;;;;2.97;38.54;101543.32;1831674;75;21335;-75
2021/03/11 10:32:58;;;;;;;7.92;5.10;;;;;;;3.03;38.14;101534.17;1746353;79;28039;-70
2021/03/11 10:35:34;;;;;;;8.00;5.30;;;;;;;3.05;38.02;101541.89;1719001;80;28242;-70
2021/03/11 10:38:29;;;;;;;6.90;3.92;;;;;;;3.20;37.86;101540.58;1740260;81;22286;-70
2021/03/11 10:41:17;;;;;;;8.10;4.70;;;;;;;3.22;37.21;101538.55;1759991;79;21803;-69
2021/03/11 10:43:46;;;;;;;7.70;4.20;;;;;;;3.15;37.33;101531.06;1765619;80;21190;-71
2021/03/11 10:46:18;;;;;;;7.92;4.20;;;;;;;3.18;37.14;101524.09;1759097;79;21189;-70
2021/03/11 10:48:52;;;;;;;9.83;5.20;;;;;;;3.20;37.18;101526.88;1799017;77;22284;-70
2021/03/11 10:51:22;;;;;;;8.30;4.75;;;;;;;3.18;37.14;101517.49;1797471;79;21331;-71
2021/03/11 10:53:50;;;;;;;8.80;4.83;;;;;;;3.17;37.29;101525.92;1794560;79;21175;-70
2021/03/11 10:56:17;;;;;;;9.75;4.83;;;;;;;3.18;37.43;101517.49;1792529;77;21119;-69
2021/03/11 10:58:46;;;;;;;9.78;4.78;;;;;;;3.18;37.38;101518.81;1792558;77;21163;-70
2021/03/11 11:01:18;;;;;;;7.03;4.53;;;;;;;3.21;37.00;101506.06;1794529;79;21148;-71
2021/03/11 11:03:47;;;;;;;5.83;3.72;;;;;;;3.25;36.92;101514.42;1802076;79;22216;-70
2021/03/11 11:06:16;;;;;;;7.28;4.15;;;;;;;3.24;37.04;101510.16;1796729;77;21610;-70
2021/03/11 11:08:45;;;;;;;8.10;4.50;;;;;;;3.26;37.39;101501.05;1782838;79;21155;-71
2021/03/11 11:11:15;;;;;;;8.28;4.53;;;;;;;3.31;37.10;101493.07;1787610;79;21147;-70
2021/03/11 11:13:43;;;;;;;7.00;4.08;;;;;;;3.32;36.84;101492.05;1805395;79;21179;-70
2021/03/11 11:16:11;;;;;;;6.55;4.20;;;;;;;3.26;36.79;101487.85;1791026;77;21372;-70
2021/03/11 11:18:40;;;;;;;7.10;3.90;;;;;;;3.29;36.95;101490.13;1799436;77;21156;-70
2021/03/11 11:21:09;;;;;;;7.87;4.60;;;;;;;3.33;37.16;101484.47;1795491;77;22424;-71
2021/03/11 11:23:37;;;;;;;7.65;3.90;;;;;;;3.33;36.86;101476.05;1793119;79;21167;-72
2021/03/11 11:26:07;;;;;;;8.35;4.72;;;;;;;3.33;36.77;101478.69;1784816;79;21224;-69
2021/03/11 11:28:35;;;;;;;13.30;5.17;;;;;;;3.34;37.04;101476.86;1781730;79;21811;-69
2021/03/11 11:31:04;;;;;;;10.45;4.95;;;;;;;3.37;36.98;101469.38;1793191;79;21669;-70
2021/03/11 11:33:32;;;;;;;7.95;4.37;;;;;;;3.39;36.87;101467.86;1787591;79;21114;-71
2021/03/11 11:36:01;;;;;;;10.58;4.83;;;;;;;3.40;36.87;101460.27;1797499;79;21638;-71
2021/03/11 11:38:29;;;;;;;11.05;5.37;;;;;;;3.41;36.90;101467.99;1790552;79;21178;-70
2021/03/11 11:40:57;;;;;;;8.68;4.62;;;;;;;3.44;36.79;101462.34;1794122;77;21449;-70
2021/03/11 11:43:26;;;;;;;7.87;4.50;;;;;;;3.48;36.66;101462.78;1804535;77;21162;-70
2021/03/11 11:45:54;;;;;;;10.65;5.00;;;;;;;3.46;36.59;101451.61;1787723;77;21114;-70
2021/03/11 11:48:22;;;;;;;10.45;5.10;;;;;;;3.42;36.20;101444.56;1790780;79;21176;-69
2021/03/11 11:50:53;;;;;;;10.53;5.15;;;;;;;3.40;36.39;101451.84;1798072;77;21590;-69
2021/03/11 11:53:22;;;;;;;7.92;4.70;;;;;;;3.42;36.17;101443.24;1796287;77;21364;-69
2021/03/11 11:55:49;;;;;;;7.85;4.58;;;;;;;3.42;35.96;101444.56;1793931;77;21713;-71